sensor_id;sensor_type;location;lat;lon;timestamp;pressure;altitude;pressure_sealevel;temperature;humidity
24013;BME280;12220;50.194;18.948;2023-04-06T00:00:00;102306.34;;;-0.69;53.00
24013;BME280;12220;50.194;18.948;2023-04-06T00:02:05;102305.42;;;-0.72;53.03
24013;BME280;12220;50.194;18.948;2023-04-06T00:04:06;102314.41;;;-0.73;53.09
24013;BME280;12220;50.194;18.948;2023-04-06T00:06:11;102313.49;;;-0.75;53.17
24013;BME280;12220;50.194;18.948;2023-04-06T00:08:12;102313.49;;;-0.76;53.21
24013;BME280;12220;50.194;18.948;2023-04-06T00:10:20;102311.69;;;-0.77;53.24
24013;BME280;12220;50.194;18.948;2023-04-06T00:12:21;102308.10;;;-0.79;53.27
24013;BME280;12220;50.194;18.948;2023-04-06T00:14:23;102313.48;;;-0.79;53.31
24013;BME280;12220;50.194;18.948;2023-04-06T00:16:24;102309.91;;;-0.81;53.31
24013;BME280;12220;50.194;18.948;2023-04-06T00:18:35;102308.10;;;-0.84;53.26
24013;BME280;12220;50.194;18.948;2023-04-06T00:20:37;102308.10;;;-0.89;53.32
24013;BME280;12220;50.194;18.948;2023-04-06T00:22:41;102305.40;;;-0.93;53.40
24013;BME280;12220;50.194;18.948;2023-04-06T00:24:43;102348.38;;;-0.96;53.44
24013;BME280;12220;50.194;18.948;2023-04-06T00:26:50;102308.97;;;-1.02;53.50
24013;BME280;12220;50.194;18.948;2023-04-06T00:28:52;102308.03;;;-1.06;53.58
24013;BME280;12220;50.194;18.948;2023-04-06T00:30:53;102304.42;;;-1.11;53.71
24013;BME280;12220;50.194;18.948;2023-04-06T00:32:56;102308.02;;;-1.13;53.79
24013;BME280;12220;50.194;18.948;2023-04-06T00:35:06;102305.33;;;-1.15;53.81
24013;BME280;12220;50.194;18.948;2023-04-06T00:37:07;102303.52;;;-1.17;53.90
24013;BME280;12220;50.194;18.948;2023-04-06T00:39:09;102309.78;;;-1.18;53.96
24013;BME280;12220;50.194;18.948;2023-04-06T00:41:11;102306.20;;;-1.20;54.03
24013;BME280;12220;50.194;18.948;2023-04-06T00:43:21;102303.51;;;-1.22;54.07
24013;BME280;12220;50.194;18.948;2023-04-06T00:45:22;102299.01;;;-1.25;54.16
24013;BME280;12220;50.194;18.948;2023-04-06T00:47:24;102301.70;;;-1.25;54.21
24013;BME280;12220;50.194;18.948;2023-04-06T00:49:28;102307.07;;;-1.26;54.25
24013;BME280;12220;50.194;18.948;2023-04-06T00:51:36;102292.70;;;-1.28;54.30
24013;BME280;12220;50.194;18.948;2023-04-06T00:53:37;102298.98;;;-1.32;54.39
24013;BME280;12220;50.194;18.948;2023-04-06T00:55:39;102297.18;;;-1.33;54.46
24013;BME280;12220;50.194;18.948;2023-04-06T00:57:41;102298.98;;;-1.35;54.54
24013;BME280;12220;50.194;18.948;2023-04-06T00:59:53;102298.05;;;-1.39;54.60
24013;BME280;12220;50.194;18.948;2023-04-06T01:01:54;102302.53;;;-1.41;54.68
24013;BME280;12220;50.194;18.948;2023-04-06T01:03:56;102301.60;;;-1.43;54.79
24013;BME280;12220;50.194;18.948;2023-04-06T01:05:57;102305.20;;;-1.44;54.89
24013;BME280;12220;50.194;18.948;2023-04-06T01:08:07;102292.65;;;-1.47;55.06
24013;BME280;12220;50.194;18.948;2023-04-06T01:10:10;102291.73;;;-1.47;55.21
24013;BME280;12220;50.194;18.948;2023-04-06T01:12:11;102298.02;;;-1.47;55.30
24013;BME280;12220;50.194;18.948;2023-04-06T01:14:14;102291.73;;;-1.46;55.33
24013;BME280;12220;50.194;18.948;2023-04-06T01:16:23;102295.34;;;-1.45;55.32
24013;BME280;12220;50.194;18.948;2023-04-06T01:18:26;102296.23;;;-1.45;55.33
24013;BME280;12220;50.194;18.948;2023-04-06T01:20:28;102287.29;;;-1.44;55.38
24013;BME280;12220;50.194;18.948;2023-04-06T01:22:31;102298.92;;;-1.40;55.41
24013;BME280;12220;50.194;18.948;2023-04-06T01:24:38;102295.38;;;-1.36;55.38
24013;BME280;12220;50.194;18.948;2023-04-06T01:26:40;102288.23;;;-1.35;55.37
24013;BME280;12220;50.194;18.948;2023-04-06T01:28:41;102290.91;;;-1.35;55.38
24013;BME280;12220;50.194;18.948;2023-04-06T01:30:43;102298.05;;;-1.37;55.41
24013;BME280;12220;50.194;18.948;2023-04-06T01:32:53;102298.92;;;-1.40;55.41
24013;BME280;12220;50.194;18.948;2023-04-06T01:34:55;102291.77;;;-1.44;55.50
24013;BME280;12220;50.194;18.948;2023-04-06T01:36:56;102282.79;;;-1.46;55.61
24013;BME280;12220;50.194;18.948;2023-04-06T01:38:57;102284.59;;;-1.47;55.63
24013;BME280;12220;50.194;18.948;2023-04-06T01:41:09;102285.46;;;-1.51;55.60
24013;BME280;12220;50.194;18.948;2023-04-06T01:43:11;102289.02;;;-1.55;55.69
24013;BME280;12220;50.194;18.948;2023-04-06T01:45:13;102286.31;;;-1.58;55.80
24013;BME280;12220;50.194;18.948;2023-04-06T01:47:14;102289.88;;;-1.62;55.88
24013;BME280;12220;50.194;18.948;2023-04-06T01:49:24;102283.59;;;-1.67;55.93
24013;BME280;12220;50.194;18.948;2023-04-06T01:51:25;102286.23;;;-1.70;56.04
24013;BME280;12220;50.194;18.948;2023-04-06T01:53:27;102288.02;;;-1.74;56.13
24013;BME280;12220;50.194;18.948;2023-04-06T01:55:29;102286.21;;;-1.77;56.21
24013;BME280;12220;50.194;18.948;2023-04-06T01:57:39;102283.52;;;-1.78;56.29
24013;BME280;12220;50.194;18.948;2023-04-06T01:59:41;102284.41;;;-1.79;56.38
24013;BME280;12220;50.194;18.948;2023-04-06T02:01:42;102281.70;;;-1.82;56.47
24013;BME280;12220;50.194;18.948;2023-04-06T02:03:44;102019.62;;;-3.34;56.47
24013;BME280;12220;50.194;18.948;2023-04-06T02:05:54;102283.50;;;-1.83;56.56
24013;BME280;12220;50.194;18.948;2023-04-06T02:07:56;102281.69;;;-1.84;56.63
24013;BME280;12220;50.194;18.948;2023-04-06T02:09:57;102284.37;;;-1.85;56.70
24013;BME280;12220;50.194;18.948;2023-04-06T02:11:59;102278.12;;;-1.84;56.79
24013;BME280;12220;50.194;18.948;2023-04-06T02:14:10;102272.74;;;-1.86;56.81
24013;BME280;12220;50.194;18.948;2023-04-06T02:16:11;102279.91;;;-1.86;56.84
24013;BME280;12220;50.194;18.948;2023-04-06T02:18:12;102280.80;;;-1.86;56.94
24013;BME280;12220;50.194;18.948;2023-04-06T02:20:14;102278.11;;;-1.86;57.02
24013;BME280;12220;50.194;18.948;2023-04-06T02:22:25;102280.82;;;-1.83;57.05
24013;BME280;12220;50.194;18.948;2023-04-06T02:24:26;102285.31;;;-1.82;57.10
24013;BME280;12220;50.194;18.948;2023-04-06T02:26:27;102275.46;;;-1.80;57.09
24013;BME280;12220;50.194;18.948;2023-04-06T02:28:29;102279.07;;;-1.78;57.03
24013;BME280;12220;50.194;18.948;2023-04-06T02:30:40;102288.01;;;-1.77;56.98
24013;BME280;12220;50.194;18.948;2023-04-06T02:32:41;102281.71;;;-1.79;57.01
24013;BME280;12220;50.194;18.948;2023-04-06T02:34:43;102279.02;;;-1.81;57.08
24013;BME280;12220;50.194;18.948;2023-04-06T02:36:47;102279.02;;;-1.81;57.17
24013;BME280;12220;50.194;18.948;2023-04-06T02:38:55;102275.44;;;-1.83;57.21
24013;BME280;12220;50.194;18.948;2023-04-06T02:40:57;102275.44;;;-1.83;57.25
24013;BME280;12220;50.194;18.948;2023-04-06T02:42:58;102276.31;;;-1.85;57.24
24013;BME280;12220;50.194;18.948;2023-04-06T02:45:00;102274.50;;;-1.88;57.31
24013;BME280;12220;50.194;18.948;2023-04-06T02:47:11;102274.50;;;-1.88;57.24
24013;BME280;12220;50.194;18.948;2023-04-06T02:49:12;102278.97;;;-1.91;57.30
24013;BME280;12220;50.194;18.948;2023-04-06T02:51:13;102315.66;;;-1.95;57.38
24013;BME280;12220;50.194;18.948;2023-04-06T02:53:15;102278.95;;;-1.98;57.46
24013;BME280;12220;50.194;18.948;2023-04-06T02:55:26;102281.61;;;-2.01;57.51
24013;BME280;12220;50.194;18.948;2023-04-06T02:57:27;102270.85;;;-2.04;57.50
24013;BME280;12220;50.194;18.948;2023-04-06T02:59:28;102283.36;;;-2.04;57.69
24013;BME280;12220;50.194;18.948;2023-04-06T03:01:30;102278.87;;;-2.05;57.78
24013;BME280;12220;50.194;18.948;2023-04-06T03:03:41;102286.91;;;-2.05;57.81
24013;BME280;12220;50.194;18.948;2023-04-06T03:05:43;102284.23;;;-2.05;57.86
24013;BME280;12220;50.194;18.948;2023-04-06T03:07:44;102287.83;;;-2.06;57.64
24013;BME280;12220;50.194;18.948;2023-04-06T03:09:45;102278.86;;;-2.07;57.90
24013;BME280;12220;50.194;18.948;2023-04-06T03:11:57;102287.83;;;-2.06;57.89
24013;BME280;12220;50.194;18.948;2023-04-06T03:13:59;102286.90;;;-2.08;57.92
24013;BME280;12220;50.194;18.948;2023-04-06T03:16:00;102291.38;;;-2.09;57.96
24013;BME280;12220;50.194;18.948;2023-04-06T03:18:01;102294.95;;;-2.08;58.01
24013;BME280;12220;50.194;18.948;2023-04-06T03:20:14;102290.49;;;-2.09;58.04
24013;BME280;12220;50.194;18.948;2023-04-06T03:22:15;102286.01;;;-2.11;58.05
24013;BME280;12220;50.194;18.948;2023-04-06T03:24:17;102290.48;;;-2.11;58.06
24013;BME280;12220;50.194;18.948;2023-04-06T03:26:18;102283.32;;;-2.11;58.08
24013;BME280;12220;50.194;18.948;2023-04-06T03:28:29;102285.98;;;-2.14;58.06
24013;BME280;12220;50.194;18.948;2023-04-06T03:30:30;102292.23;;;-2.15;58.10
24013;BME280;12220;50.194;18.948;2023-04-06T03:32:32;102279.68;;;-2.17;58.14
24013;BME280;12220;50.194;18.948;2023-04-06T03:34:33;102286.84;;;-2.19;58.17
24013;BME280;12220;50.194;18.948;2023-04-06T03:36:44;102292.19;;;-2.22;58.18
24013;BME280;12220;50.194;18.948;2023-04-06T03:38:46;102289.48;;;-2.25;58.26
24013;BME280;12220;50.194;18.948;2023-04-06T03:40:48;102291.23;;;-2.28;58.36
24013;BME280;12220;50.194;18.948;2023-04-06T03:42:49;102299.28;;;-2.28;58.43
24013;BME280;12220;50.194;18.948;2023-04-06T03:44:59;102300.20;;;-2.27;58.43
24013;BME280;12220;50.194;18.948;2023-04-06T03:47:01;102289.46;;;-2.29;58.44
24013;BME280;12220;50.194;18.948;2023-04-06T03:49:03;102290.35;;;-2.28;58.46
24013;BME280;12220;50.194;18.948;2023-04-06T03:51:04;102294.79;;;-2.30;58.53
24013;BME280;12220;50.194;18.948;2023-04-06T03:53:14;102295.70;;;-2.31;58.56
24013;BME280;12220;50.194;18.948;2023-04-06T03:55:16;102297.48;;;-2.30;58.59
24013;BME280;12220;50.194;18.948;2023-04-06T03:57:20;102301.96;;;-2.29;58.62
24013;BME280;12220;50.194;18.948;2023-04-06T03:59:22;102298.40;;;-2.30;58.65
24013;BME280;12220;50.194;18.948;2023-04-06T04:01:30;102304.65;;;-2.29;58.64
24013;BME280;12220;50.194;18.948;2023-04-06T04:03:31;102300.16;;;-2.30;58.67
24013;BME280;12220;50.194;18.948;2023-04-06T04:05:32;102305.52;;;-2.30;58.72
24013;BME280;12220;50.194;18.948;2023-04-06T04:07:34;102305.52;;;-2.30;58.75
24013;BME280;12220;50.194;18.948;2023-04-06T04:09:46;102300.16;;;-2.30;58.72
24013;BME280;12220;50.194;18.948;2023-04-06T04:11:48;102297.48;;;-2.30;58.74
24013;BME280;12220;50.194;18.948;2023-04-06T04:13:50;102310.87;;;-2.32;58.77
24013;BME280;12220;50.194;18.948;2023-04-06T04:15:51;102302.83;;;-2.30;58.84
24013;BME280;12220;50.194;18.948;2023-04-06T04:18:02;102301.94;;;-2.32;58.86
24013;BME280;12220;50.194;18.948;2023-04-06T04:20:04;102307.30;;;-2.32;58.90
24013;BME280;12220;50.194;18.948;2023-04-06T04:22:06;102306.43;;;-2.31;58.93
24013;BME280;12220;50.194;18.948;2023-04-06T04:24:07;102303.73;;;-2.31;58.94
24013;BME280;12220;50.194;18.948;2023-04-06T04:26:17;102305.51;;;-2.32;58.93
24013;BME280;12220;50.194;18.948;2023-04-06T04:28:19;102305.51;;;-2.32;58.98
24013;BME280;12220;50.194;18.948;2023-04-06T04:30:21;102306.43;;;-2.31;59.00
24013;BME280;12220;50.194;18.948;2023-04-06T04:32:23;102310.88;;;-2.30;58.99
24013;BME280;12220;50.194;18.948;2023-04-06T04:34:32;102307.30;;;-2.31;58.94
24013;BME280;12220;50.194;18.948;2023-04-06T04:36:34;102302.82;;;-2.32;58.97
24013;BME280;12220;50.194;18.948;2023-04-06T04:38:35;102301.94;;;-2.32;58.99
24013;BME280;12220;50.194;18.948;2023-04-06T04:40:37;102300.13;;;-2.32;59.00
24013;BME280;12220;50.194;18.948;2023-04-06T04:42:49;102304.62;;;-2.32;58.99
24013;BME280;12220;50.194;18.948;2023-04-06T04:44:52;102305.50;;;-2.33;59.03
24013;BME280;12220;50.194;18.948;2023-04-06T04:46:53;102305.48;;;-2.35;59.06
24013;BME280;12220;50.194;18.948;2023-04-06T04:48:55;102307.30;;;-2.34;59.10
24013;BME280;12220;50.194;18.948;2023-04-06T04:51:04;102311.77;;;-2.34;59.06
24013;BME280;12220;50.194;18.948;2023-04-06T04:53:06;102308.18;;;-2.33;59.13
24013;BME280;12220;50.194;18.948;2023-04-06T04:55:08;102301.05;;;-2.34;59.16
24013;BME280;12220;50.194;18.948;2023-04-06T04:57:09;102307.30;;;-2.32;59.20
24013;BME280;12220;50.194;18.948;2023-04-06T04:59:18;102313.56;;;-2.32;59.20
24013;BME280;12220;50.194;18.948;2023-04-06T05:01:20;102311.79;;;-2.31;59.24
24013;BME280;12220;50.194;18.948;2023-04-06T05:03:23;102305.52;;;-2.30;59.30
24013;BME280;12220;50.194;18.948;2023-04-06T05:05:25;102298.40;;;-2.30;59.37
24013;BME280;12220;50.194;18.948;2023-04-06T05:07:33;102300.20;;;-2.27;59.40
24013;BME280;12220;50.194;18.948;2023-04-06T05:09:35;102300.20;;;-2.29;59.47
24013;BME280;12220;50.194;18.948;2023-04-06T05:11:37;102017.35;;;-3.88;59.41
24013;BME280;12220;50.194;18.948;2023-04-06T05:13:38;102295.76;;;-2.22;59.56
24013;BME280;12220;50.194;18.948;2023-04-06T05:15:49;102301.13;;;-2.19;59.61
24013;BME280;12220;50.194;18.948;2023-04-06T05:17:50;102301.16;;;-2.17;59.69
24013;BME280;12220;50.194;18.948;2023-04-06T05:19:52;102302.09;;;-2.14;59.75
24013;BME280;12220;50.194;18.948;2023-04-06T05:21:53;102294.94;;;-2.10;59.80
24013;BME280;12220;50.194;18.948;2023-04-06T05:24:04;102305.70;;;-2.05;59.83
24013;BME280;12220;50.194;18.948;2023-04-06T05:26:06;102298.59;;;-2.02;59.91
24013;BME280;12220;50.194;18.948;2023-04-06T05:28:07;102303.11;;;-1.96;59.98
24013;BME280;12220;50.194;18.948;2023-04-06T05:30:09;102296.88;;;-1.92;60.15
24013;BME280;12220;50.194;18.948;2023-04-06T05:32:19;102296.92;;;-1.83;60.05
24013;BME280;12220;50.194;18.948;2023-04-06T05:34:25;102298.76;;;-1.77;60.07
24013;BME280;12220;50.194;18.948;2023-04-06T05:36:26;102296.09;;;-1.72;60.11
24013;BME280;12220;50.194;18.948;2023-04-06T05:38:28;102293.41;;;-1.68;60.13
24013;BME280;12220;50.194;18.948;2023-04-06T05:40:35;102290.75;;;-1.63;60.14
24013;BME280;12220;50.194;18.948;2023-04-06T05:42:41;102294.38;;;-1.60;60.19
24013;BME280;12220;50.194;18.948;2023-04-06T05:44:43;102295.27;;;-1.54;60.23
24013;BME280;12220;50.194;18.948;2023-04-06T05:46:45;102338.32;;;-1.50;60.29
24013;BME280;12220;50.194;18.948;2023-04-06T05:48:50;102294.46;;;-1.43;60.31
24013;BME280;12220;50.194;18.948;2023-04-06T05:50:51;102288.19;;;-1.37;60.31
24013;BME280;12220;50.194;18.948;2023-04-06T05:52:53;102290.01;;;-1.31;60.36
24013;BME280;12220;50.194;18.948;2023-04-06T05:54:55;102288.26;;;-1.25;60.42
24013;BME280;12220;50.194;18.948;2023-04-06T05:57:05;102289.16;;;-1.21;60.45
24013;BME280;12220;50.194;18.948;2023-04-06T05:59:06;102290.96;;;-1.17;60.56
24013;BME280;12220;50.194;18.948;2023-04-06T06:01:08;102286.52;;;-1.12;60.64
24013;BME280;12220;50.194;18.948;2023-04-06T06:03:11;102289.22;;;-1.06;60.74
24013;BME280;12220;50.194;18.948;2023-04-06T06:05:20;102282.97;;;-1.00;60.77
24013;BME280;12220;50.194;18.948;2023-04-06T06:07:23;102284.77;;;-0.94;60.89
24013;BME280;12220;50.194;18.948;2023-04-06T06:09:24;102282.97;;;-0.88;61.05
24013;BME280;12220;50.194;18.948;2023-04-06T06:11:27;102276.71;;;-0.82;61.17
24013;BME280;12220;50.194;18.948;2023-04-06T06:13:36;102277.64;;;-0.74;61.21
24013;BME280;12220;50.194;18.948;2023-04-06T06:15:37;102285.70;;;-0.67;61.29
24013;BME280;12220;50.194;18.948;2023-04-06T06:17:38;102278.55;;;-0.59;61.35
24013;BME280;12220;50.194;18.948;2023-04-06T06:19:40;102280.34;;;-0.52;61.35
24013;BME280;12220;50.194;18.948;2023-04-06T06:21:51;102279.46;;;-0.43;61.29
24013;BME280;12220;50.194;18.948;2023-04-06T06:23:52;102274.96;;;-0.37;61.27
24013;BME280;12220;50.194;18.948;2023-04-06T06:25:55;102274.97;;;-0.29;61.28
24013;BME280;12220;50.194;18.948;2023-04-06T06:27:59;102274.06;;;-0.22;61.27
24013;BME280;12220;50.194;18.948;2023-04-06T06:30:07;102279.44;;;-0.14;61.19
24013;BME280;12220;50.194;18.948;2023-04-06T06:32:08;102274.04;;;-0.06;61.16
24013;BME280;12220;50.194;18.948;2023-04-06T06:34:11;102280.31;;;0.02;61.07
24013;BME280;12220;50.194;18.948;2023-04-06T06:36:13;102273.14;;;0.09;60.95
24013;BME280;12220;50.194;18.948;2023-04-06T06:38:21;102270.41;;;0.16;60.83
24013;BME280;12220;50.194;18.948;2023-04-06T06:40:23;102277.59;;;0.24;60.74
24013;BME280;12220;50.194;18.948;2023-04-06T06:42:25;102278.45;;;0.32;60.68
24013;BME280;12220;50.194;18.948;2023-04-06T06:44:27;102272.13;;;0.39;60.60
24013;BME280;12220;50.194;18.948;2023-04-06T06:46:37;102283.79;;;0.47;60.47
24013;BME280;12220;50.194;18.948;2023-04-06T06:48:38;102321.51;;;0.54;60.35
24013;BME280;12220;50.194;18.948;2023-04-06T06:50:39;102276.56;;;0.60;60.26
24013;BME280;12220;50.194;18.948;2023-04-06T06:52:41;102269.34;;;0.65;60.19
24013;BME280;12220;50.194;18.948;2023-04-06T06:54:52;102275.60;;;0.74;60.09
24013;BME280;12220;50.194;18.948;2023-04-06T06:56:53;102276.49;;;0.79;60.00
24013;BME280;12220;50.194;18.948;2023-04-06T06:58:55;102272.87;;;0.86;59.94
24013;BME280;12220;50.194;18.948;2023-04-06T07:00:58;102272.81;;;0.94;59.84
24013;BME280;12220;50.194;18.948;2023-04-06T07:03:07;102265.56;;;1.00;59.70
24013;BME280;12220;50.194;18.948;2023-04-06T07:05:09;102277.22;;;1.07;59.57
24013;BME280;12220;50.194;18.948;2023-04-06T07:07:10;102269.99;;;1.15;59.45
24013;BME280;12220;50.194;18.948;2023-04-06T07:09:12;102272.63;;;1.23;59.35
24013;BME280;12220;50.194;18.948;2023-04-06T07:11:23;102270.79;;;1.31;59.22
24013;BME280;12220;50.194;18.948;2023-04-06T07:13:25;102277.92;;;1.38;58.90
24013;BME280;12220;50.194;18.948;2023-04-06T07:15:28;102279.68;;;1.46;58.75
24013;BME280;12220;50.194;18.948;2023-04-06T07:17:30;102064.77;;;0.14;58.43
24013;BME280;12220;50.194;18.948;2023-04-06T07:19:39;102275.97;;;1.59;58.19
24013;BME280;12220;50.194;18.948;2023-04-06T07:21:41;102279.49;;;1.66;57.79
24013;BME280;12220;50.194;18.948;2023-04-06T07:23:42;102272.25;;;1.72;57.52
24013;BME280;12220;50.194;18.948;2023-04-06T07:25:44;102282.97;;;1.82;56.97
24013;BME280;12220;50.194;18.948;2023-04-06T07:27:53;102282.91;;;1.91;57.05
24013;BME280;12220;50.194;18.948;2023-04-06T07:29:55;102280.12;;;1.99;56.82
24013;BME280;12220;50.194;18.948;2023-04-06T07:31:56;102298.92;;;2.08;56.65
24013;BME280;12220;50.194;18.948;2023-04-06T07:33:58;102277.27;;;2.14;56.18
24013;BME280;12220;50.194;18.948;2023-04-06T07:36:09;102273.59;;;2.20;55.17
24013;BME280;12220;50.194;18.948;2023-04-06T07:38:10;102278.91;;;2.29;55.14
24013;BME280;12220;50.194;18.948;2023-04-06T07:40:12;102288.69;;;2.41;55.39
24013;BME280;12220;50.194;18.948;2023-04-06T07:42:13;102283.16;;;2.50;54.62
24013;BME280;12220;50.194;18.948;2023-04-06T07:44:24;102272.25;;;2.59;54.17
24013;BME280;12220;50.194;18.948;2023-04-06T07:46:25;102273.05;;;2.66;53.87
24013;BME280;12220;50.194;18.948;2023-04-06T07:48:27;102274.79;;;2.72;52.83
24013;BME280;12220;50.194;18.948;2023-04-06T07:50:28;102269.27;;;2.81;53.44
24013;BME280;12220;50.194;18.948;2023-04-06T07:52:39;102274.54;;;2.92;53.69
24013;BME280;12220;50.194;18.948;2023-04-06T07:54:41;102268.98;;;3.01;53.60
24013;BME280;12220;50.194;18.948;2023-04-06T07:56:43;102271.58;;;3.10;53.08
24013;BME280;12220;50.194;18.948;2023-04-06T07:58:44;102268.74;;;3.18;53.26
24013;BME280;12220;50.194;18.948;2023-04-06T08:00:54;102273.13;;;3.27;52.98
24013;BME280;12220;50.194;18.948;2023-04-06T08:02:56;102264.95;;;3.30;52.38
24013;BME280;12220;50.194;18.948;2023-04-06T08:04:58;102270.20;;;3.39;52.26
24013;BME280;12220;50.194;18.948;2023-04-06T08:06:59;102268.34;;;3.44;52.36
24013;BME280;12220;50.194;18.948;2023-04-06T08:09:09;102265.59;;;3.47;51.96
24013;BME280;12220;50.194;18.948;2023-04-06T08:11:11;102256.57;;;3.47;51.25
24013;BME280;12220;50.194;18.948;2023-04-06T08:13:12;102266.41;;;3.53;50.65
24013;BME280;12220;50.194;18.948;2023-04-06T08:15:13;102253.73;;;3.55;50.92
24013;BME280;12220;50.194;18.948;2023-04-06T08:17:24;102262.70;;;3.60;51.12
24013;BME280;12220;50.194;18.948;2023-04-06T08:19:28;102202.66;;;3.31;51.14
24013;BME280;12220;50.194;18.948;2023-04-06T08:21:29;102257.93;;;3.74;51.10
24013;BME280;12220;50.194;18.948;2023-04-06T08:23:31;102260.50;;;3.82;50.97
24013;BME280;12220;50.194;18.948;2023-04-06T08:25:39;102258.52;;;3.92;51.08
24013;BME280;12220;50.194;18.948;2023-04-06T08:27:41;102247.53;;;3.99;50.51
24013;BME280;12220;50.194;18.948;2023-04-06T08:29:42;102246.52;;;4.05;50.40
24013;BME280;12220;50.194;18.948;2023-04-06T08:31:44;102244.58;;;4.12;50.48
24013;BME280;12220;50.194;18.948;2023-04-06T08:33:55;102247.20;;;4.16;50.45
24013;BME280;12220;50.194;18.948;2023-04-06T08:35:56;102244.43;;;4.21;50.52
24013;BME280;12220;50.194;18.948;2023-04-06T08:37:58;102247.95;;;4.25;50.23
24013;BME280;12220;50.194;18.948;2023-04-06T08:39:59;102253.34;;;4.26;50.01
24013;BME280;12220;50.194;18.948;2023-04-06T08:42:21;102253.28;;;4.29;50.11
24013;BME280;12220;50.194;18.948;2023-04-06T08:44:32;102248.73;;;4.31;49.83
24013;BME280;12220;50.194;18.948;2023-04-06T08:46:33;102245.99;;;4.33;50.07
24013;BME280;12220;50.194;18.948;2023-04-06T08:48:36;102250.43;;;4.37;49.97
24013;BME280;12220;50.194;18.948;2023-04-06T08:50:38;102248.58;;;4.39;49.35
24013;BME280;12220;50.194;18.948;2023-04-06T08:52:47;102244.04;;;4.40;49.21
24013;BME280;12220;50.194;18.948;2023-04-06T08:54:49;102246.78;;;4.38;49.18
24013;BME280;12220;50.194;18.948;2023-04-06T08:56:54;102243.15;;;4.39;49.18
24013;BME280;12220;50.194;18.948;2023-04-06T08:58:57;102242.27;;;4.39;49.23
24013;BME280;12220;50.194;18.948;2023-04-06T09:01:07;102237.73;;;4.39;49.17
24013;BME280;12220;50.194;18.948;2023-04-06T09:03:12;102225.96;;;4.40;49.45
24013;BME280;12220;50.194;18.948;2023-04-06T09:05:15;102233.12;;;4.44;49.33
24013;BME280;12220;50.194;18.948;2023-04-06T09:07:18;102240.30;;;4.45;49.13
24013;BME280;12220;50.194;18.948;2023-04-06T09:09:20;102236.67;;;4.46;49.08
24013;BME280;12220;50.194;18.948;2023-04-06T09:11:21;102241.29;;;4.41;48.04
24013;BME280;12220;50.194;18.948;2023-04-06T09:13:22;102230.41;;;4.44;48.56
24013;BME280;12220;50.194;18.948;2023-04-06T09:15:24;102228.57;;;4.45;48.35
24013;BME280;12220;50.194;18.948;2023-04-06T09:17:34;102230.27;;;4.50;48.68
24013;BME280;12220;50.194;18.948;2023-04-06T09:21:50;102231.05;;;4.56;48.51
24013;BME280;12220;50.194;18.948;2023-04-06T09:24:01;102225.55;;;4.59;48.29
24013;BME280;12220;50.194;18.948;2023-04-06T09:26:13;102220.94;;;4.64;48.43
24013;BME280;12220;50.194;18.948;2023-04-06T09:28:16;102229.89;;;4.69;48.38
24013;BME280;12220;50.194;18.948;2023-04-06T09:30:17;102228.91;;;4.71;48.29
24013;BME280;12220;50.194;18.948;2023-04-06T09:32:22;102221.67;;;4.72;47.88
24013;BME280;12220;50.194;18.948;2023-04-06T09:34:23;102211.59;;;4.77;48.40
24013;BME280;12220;50.194;18.948;2023-04-06T09:36:32;102212.47;;;4.79;48.02
24013;BME280;12220;50.194;18.948;2023-04-06T09:38:34;102201.55;;;4.82;47.84
24013;BME280;12220;50.194;18.948;2023-04-06T09:40:36;102206.02;;;4.85;47.90
24013;BME280;12220;50.194;18.948;2023-04-06T09:42:37;102207.74;;;4.87;47.49
24013;BME280;12220;50.194;18.948;2023-04-06T09:44:46;102204.03;;;4.92;47.78
24013;BME280;12220;50.194;18.948;2023-04-06T09:46:50;102204.92;;;4.92;47.74
24013;BME280;12220;50.194;18.948;2023-04-06T09:48:58;102203.08;;;4.94;47.63
24013;BME280;12220;50.194;18.948;2023-04-06T09:51:05;102203.05;;;4.96;47.84
24013;BME280;12220;50.194;18.948;2023-04-06T09:53:08;102202.05;;;5.00;47.94
24013;BME280;12220;50.194;18.948;2023-04-06T09:55:10;102210.12;;;5.03;47.86
24013;BME280;12220;50.194;18.948;2023-04-06T10:01:40;102194.46;;;5.14;46.93
24013;BME280;12220;50.194;18.948;2023-04-06T10:03:51;102193.71;;;5.08;46.40
24013;BME280;12220;50.194;18.948;2023-04-06T10:06:05;102190.95;;;5.09;47.02
24013;BME280;12220;50.194;18.948;2023-04-06T10:08:14;102190.95;;;5.09;46.92
24013;BME280;12220;50.194;18.948;2023-04-06T10:10:16;102178.34;;;5.06;46.57
24013;BME280;12220;50.194;18.948;2023-04-06T10:12:18;102186.60;;;5.02;46.43
24013;BME280;12220;50.194;18.948;2023-04-06T10:14:22;102185.68;;;5.03;46.84
24013;BME280;12220;50.194;18.948;2023-04-06T10:16:24;102177.53;;;5.03;46.81
24013;BME280;12220;50.194;18.948;2023-04-06T10:18:28;102180.96;;;5.11;46.73
24013;BME280;12220;50.194;18.948;2023-04-06T10:24:58;102182.61;;;5.17;46.27
24013;BME280;12220;50.194;18.948;2023-04-06T10:27:03;102185.24;;;5.21;46.43
24013;BME280;12220;50.194;18.948;2023-04-06T10:29:05;102177.01;;;5.24;46.30
24013;BME280;12220;50.194;18.948;2023-04-06T10:31:07;102167.73;;;5.33;46.47
24013;BME280;12220;50.194;18.948;2023-04-06T10:33:19;102169.41;;;5.39;46.23
24013;BME280;12220;50.194;18.948;2023-04-06T10:35:21;102168.46;;;5.40;45.71
24013;BME280;12220;50.194;18.948;2023-04-06T10:37:22;102169.34;;;5.42;45.85
24013;BME280;12220;50.194;18.948;2023-04-06T10:39:25;102157.51;;;5.43;45.66
24013;BME280;12220;50.194;18.948;2023-04-06T10:41:36;102150.18;;;5.47;45.68
24013;BME280;12220;50.194;18.948;2023-04-06T10:43:44;102152.86;;;5.48;45.74
24013;BME280;12220;50.194;18.948;2023-04-06T10:47:59;101941.26;;;4.37;45.57
24013;BME280;12220;50.194;18.948;2023-04-06T10:50:00;102153.39;;;5.63;45.93
24013;BME280;12220;50.194;18.948;2023-04-06T10:52:02;102156.85;;;5.68;45.85
24013;BME280;12220;50.194;18.948;2023-04-06T10:54:03;102149.53;;;5.71;45.74